Terminal Aerodrome Forecast
Issued by NWS Brownsville, TX

Home | Current Version | Previous Version | Text Only | Print | Product List | Glossary On
Versions: 1 2 3 4 5 6 7 8 9 10 11 12 13 14 15 16 17 18 19 20
000
FTUS44 KBRO 240500
TAFBRO
TAF
KBRO 240526Z 2406/2506 15015KT P6SM OVC015
     FM241500 17018G26KT P6SM SCT035
     FM242200 14014G20KT P6SM FEW040=

USA.gov is the U.S. government's official web portal to all federal, state and local government web resources and services.